EWR weather

Newark Liberty International Airport
Newark, New Jersey, United States

Public forecast

Using degrees Fahrenheit for public forecast. Weather courtesy of forecast.io.

METAR (pilot weather report)

Retrieved 2017/03/28 12:51 UTC (1 hour ago):

KEWR 281251Z 05006KT 5SM BR OVC006 08/07 A2994

TAF (pilot weather forecast)

Retrieved 2017/03/28 12:24 UTC (1 hour ago):

TAF KEWR 281120Z 2812/2918 06005KT 3SM BR OVC006 TEMPO 2812/2815 1 1/2SM BR OVC004 FM281500 07004KT 1 1/2SM BR OVC008 FM281900 06004KT 3SM -RA BR OVC010 FM290000 03004KT 3SM -RA BR OVC008 FM290400 36006KT 5SM BR OVC012 FM290800 34007KT P6SM BKN025 FM291500 34014KT P6SM SCT025